KBZN/BZN METAR and TAF weather

Enter ICAO airport designator
Station Type Date Time Source
KBZN METAR 2021/06/25 01:56 UTC NOAA

KBZN 250156Z 35007KT 10SM BKN110 24/06 A2997 RMK AO2 SLP109 T02390061


Station Type Date Time Source
KBZN Decoded METAR 2021/06/25 01:56 UTC NOAA

BOZEMAN GALLATIN FIELD, MT, United States (KBZN) 45-47N 111-09W 1361M
Jun 24, 2021 - 09:56 PM EDT / 2021.06.25 0156 UTC
Wind: from the N (350 degrees) at 8 MPH (7 KT):0
Visibility: 10 mile(s):0
Sky conditions: mostly cloudy
Temperature: 75.0 F (23.9 C)
Dew Point: 43.0 F (6.1 C)
Relative Humidity: 31%
Pressure (altimeter): 29.97 in. Hg (1014 hPa)
ob: KBZN 250156Z 35007KT 10SM BKN110 24/06 A2997 RMK AO2 SLP109 T02390061
cycle: 2

Station Type Date Time Source
KBZN TAF 2021/06/24 18:46 UTC NOAA

TAF KBZN 241743Z 2418/2524 VRB05KT P6SM SCT100
FM250200 VRB04KT P6SM SCT070 BKN100 PROB30 2503/2506 -SHRA BKN050
FM251300 VRB04KT P6SM SCT100

Example: see airport list